• Join FlightAware (Why Join?)
  • Login
  • US Flag 
08:49AM EDT


 

Airport Tracker/Info


-or-


 

Live Flight TrackerFlight Track Log ✈ LOF3422 ✈ 12-May-2013 ✈ KCVG - KIAD

Flight Track Log - Related Links

Times and Time Zones

All times are in EDT time to prevent confusion due to time zone crossing. See the LOF3422 flight status page for this flight to view local times or setup timezone preferences in your user account.

Time Position Orientation Groundspeed Altitude Reporting Facility
EDT Latitude Longitude Course Direction KTS MPH feet Rate Location/Type
07:54PM 39.0500 -84.6833 123° Southeast 146 168 1,400  Level Cincinnati TRACON
07:55PM 39.0500 -84.7000 270° West 169 194 2,500 2,040 Climbing Cincinnati TRACON
07:56PM 39.0833 -84.6500 49° Northeast 230 265 4,500 1,920 Climbing Cincinnati TRACON
07:57PM 39.0500 -84.5500 113° Southeast 279 321 6,600 2,100 Climbing Cincinnati TRACON
07:58PM 38.8888 -84.1770 101° East  Level FlightAware Approximate
07:59PM 38.8673 -84.0372 101° East  Level FlightAware Approximate
07:59PM 39.0000 -84.3992 113° Southeast 295 339 10,400  Level Indianapolis Center
08:00PM 38.8445 -83.9057 123° Southeast  Level FlightAware Approximate
08:00PM 38.9703 -84.2919 110° East 312 359 12,200  Level Indianapolis Center
08:01PM 38.9542 -84.1656 99° East 351 404 13,400 1,260 Climbing Indianapolis Center
08:02PM 38.9342 -84.0322 101° East 373 429 14,800 1,380 Climbing Indianapolis Center
08:03PM 38.9142 -83.8958 101° East 385 443 16,300 1,260 Climbing Indianapolis Center
08:04PM 38.8936 -83.7569 101° East 394 453 17,500 960 Climbing Indianapolis Center
08:05PM 38.8725 -83.6114 101° East 410 472 18,400 1,020 Climbing Indianapolis Center
08:06PM 38.8492 -83.4622 101° East 423 487 19,600 1,260 Climbing Indianapolis Center
08:07PM 38.8228 -83.2828 101° East 437 503 21,000 1,440 Climbing Indianapolis Center
08:08PM 38.8003 -83.1375 101° East 442 509 22,600 1,080 Climbing Indianapolis Center
08:09PM 38.7764 -82.9822 101° East 444 511 23,300 600 Climbing Indianapolis Center
08:10PM 38.7381 -82.8208 107° East 470 541 23,900 660 Climbing Indianapolis Center
08:11PM 38.6797 -82.6639 115° Southeast 485 558 24,700 840 Climbing Indianapolis Center
08:12PM 38.6106 -82.4742 115° Southeast 492 566 25,700 960 Climbing Indianapolis Center
08:13PM 38.5528 -82.3147 115° Southeast 495 570 26,700 600 Climbing Indianapolis Center
08:14PM 38.4947 -82.1556 115° Southeast 497 572 27,000 120 Climbing Indianapolis Center
08:15PM 38.4319 -81.9900 116° Southeast 516 594 27,000  Level Indianapolis Center
08:16PM 38.3694 -81.8236 116° Southeast 525 604 27,000  Level Indianapolis Center
08:17PM 38.3458 -81.6381 99° East 541 623 27,000  Level Indianapolis Center
08:18PM 38.3394 -81.4453 92° East 551 634 27,000  Level Indianapolis Center
08:19PM 38.3317 -81.2142 92° East 552 635 27,000  Level Indianapolis Center
08:20PM 38.3244 -81.0200 93° East 553 636 27,000  Level Indianapolis Center
08:21PM 38.3233 -80.9778 92° East 552 635 27,000  Level Washington Center
08:22PM 38.3150 -80.7919 93° East 547 629 27,000  Level Washington Center
08:23PM 38.3097 -80.6194 92° East 518 596 27,000 -240 Level Washington Center
08:24PM 38.3089 -80.4394 90° East 503 579 26,600 -960 Descending Washington Center
08:25PM 38.3436 -80.2486 77° East 497 572 25,100 -1,320 Descending Washington Center
08:26PM 38.3750 -80.0808 77° East 497 572 24,000 -600 Descending Washington Center
08:27PM 38.4122 -79.9189 74° East 487 560 24,000  Level Washington Center
08:28PM 38.4492 -79.7594 73° East 473 544 24,000  Level Washington Center
08:29PM 38.4858 -79.5994 74° East 467 537 24,000  Level Washington Center
08:30PM 38.5197 -79.4556 73° East 472 543 24,000 -420 Level Washington Center
08:31PM 38.5478 -79.2922 78° East 467 537 23,200 -1,200 Descending Washington Center
08:32PM 38.5803 -79.1161 77° East 474 545 21,600 -1,560 Descending Washington Center
08:33PM 38.6033 -78.9683 79° East 448 516 20,100 -1,800 Descending Washington Center
08:34PM 38.6281 -78.8233 78° East 426 490 18,000 -2,160 Descending Washington Center
08:35PM 38.6589 -78.6889 74° East 411 473 15,900 -2,400 Descending Washington Center
08:36PM 38.6892 -78.5600 73° East 384 442 13,300 -2,280 Descending Washington Center
08:37PM 38.7172 -78.4361 74° East 370 426 11,300 -1,620 Descending Washington Center
08:38PM 38.7592 -78.3392 61° Northeast 319 367 10,200 -1,320 Descending Washington Center
08:39PM 38.8231 -78.2775 37° Northeast 297 342 8,700 -1,320 Descending Washington Center
08:40PM 38.8925 -78.2508 17° North 269 310 7,600 -1,080 Descending Washington Center
08:41PM 38.9581 -78.2050 29° Northeast 258 297 6,600 -780 Descending Washington Center
08:42PM 39.0094 -78.1400 44° Northeast 258 297 6,100 -300 Descending Washington Center
08:43PM 38.9989 -78.0408 98° East 232 267 6,000  Descending Washington Center
08:44PM 38.9864 -77.9389 99° East 250 288 6,100  Climbing Washington Center
08:45PM 38.9756 -77.8453 98° East 281 323 6,100  Level Washington Center
08:47PM 38.9500 -77.6333 99° East 229 264 6,100  Level Potomac TRACON
08:48PM 38.9000 -77.6000 153° Southeast 224 258 6,100  Level Potomac TRACON
08:49PM 38.8333 -77.5667 159° South 209 241 6,100 -480 Level Potomac TRACON
08:50PM 38.7833 -77.5833 195° South 215 247 5,200 -840 Descending Potomac TRACON
08:51PM 38.7167 -77.5833 180° South 199 229 4,600 -840 Descending Potomac TRACON
08:52PM 38.7000 -77.5167 108° East 210 242 3,500 -660 Descending Potomac TRACON
08:53PM 38.7333 -77.4667 49° Northeast 189 217 3,300 -240 Descending Potomac TRACON
08:54PM 38.7833 -77.4667 360° North 178 205 3,100 -300 Descending Potomac TRACON
08:55PM 38.8333 -77.4667 360° North 151 174 2,700 -420 Descending Potomac TRACON